KSUNKPUW

Guest
Details From KSUN - FRIEDMAN MEM
To KPUW - Pullman Moscow Rgnl
Flight Number -
Tags generated
Created
Modified
Stats Distance 256 nm / 474 km
Max Altitude 31,600 ft / 9,632 m
Waypoints 4
Social Downloads 0
Likes 0
Share VATSIM

Download

Looking for another format? Having issues loading an existing format? Contact us
Advertisement - Login to hide

Notes

Basic altitude profile: - Ascent Rate: 2500ft/min - Ascent Speed: 250kts - Cruise Altitude: 35000ft - Cruise Speed: 420kts - Descent Rate: 1500ft/min - Descent Speed: 250kts Options: - Use NATs: yes - Use PACOTS: yes - Use low airways: yes - Use high airways: yes

Route

KSUN LKT J52 DOXIE KPUW

ID Type Via Altitude Latitude Longitude Leg Dist Tot Dist Heading (true) Name
O KSUN APT - 0 ft / 0 m 43.50445˚ -114.29621˚ - 0 nm - FRIEDMAN MEM
LKT VOR - 31,600 ft / 9,632 m 45.02131˚ -114.08425˚ 91 nm 91 nm 6° / 6° SALMON VOR-DME
DOXIE FIX J52 (AWY-HI) 20,800 ft / 6,340 m 45.83895˚ -115.17136˚ 67 nm 158 nm 317° / 317° -
O KPUW APT - 0 ft / 0 m 46.74386˚ -117.10959˚ 97 nm 255 nm 305° / 303° Pullman Moscow Rgnl

Altitude Profile

Advertisement - Login to hide

Weather


0- 5 10 15 20 25 30 35+ Temperature / ° C

Clouds and Precipitation
Forecast for 2017-12-16 00:00 UTC. Updated an hour ago

Ground ~20,000 ft ~40,000 ft Winds

KSUN

Details ICAO KSUN (SUN)
Name FRIEDMAN MEM
Region United States
Timezone America/Boise (UTC-7.0)
Stats Elevation 5,320 ft / 1,622 m (AMSL)
Location 43.504452° -114.296209°
Runways 1
Magnetic Variation 12.735° E

METAR

KSUN 151948Z 12005KT 10SM SCT130 M01/M04 A3015

Decode

TAF

TAF KSUN 151726Z 1518/1624 15006KT P6SM SCT120 FM160200 32006KT P6SM VCSH BKN020 FM160800 31005KT 5SM -SN SCT010 OVC040 FM161600 15008KT P6SM VCSH SCT010 BKN040

Decode

Departure Runways

ID Width Length Bearing (true) Bearing (mag) Surface Threshold Offset Overrun Length
13 100 ft / 30 m 6,949 ft / 2,118 m 144.87° 132.14° Asphalt 1,501 ft / 458 m 0 ft / 0 m
31 100 ft / 30 m 6,949 ft / 2,118 m 324.88° 312.15° Asphalt 0 ft / 0 m 0 ft / 0 m

KPUW

Details ICAO KPUW (PUW)
Name Pullman Moscow Rgnl
Region United States
Timezone America/Los_Angeles (UTC-8.0)
Stats Elevation 2,556 ft / 779 m (AMSL)
Location 46.743856° -117.109587°
Runways 1
Magnetic Variation 14.274° E

METAR

KPUW 151953Z AUTO 27008KT M1/4SM FZFG VV002 M03/M04 A3011 RMK AO2 SNB39E43 SLP223 P0000 I1001 T10281044

Decode

TAF

TAF AMD KPUW 152008Z 1520/1618 27009KT 1/2SM FZFG VV004 TEMPO 1520/1523 1/4SM SN FZFG VV002 FM152300 23005KT 3/4SM -SN BR OVC005 FM160100 25006KT 2SM -SHSN BR OVC004 FM161000 26006KT 1SM BR OVC004 FM161600 27002KT 2SM BR OVC008

Decode

Destination Runways

ID Width Length Bearing (true) Bearing (mag) Surface Threshold Offset Overrun Length
05 100 ft / 30 m 6,714 ft / 2,046 m 70.05° 55.78° Asphalt 290 ft / 88 m 0 ft / 0 m
23 100 ft / 30 m 6,714 ft / 2,046 m 250.07° 235.80° Asphalt 801 ft / 244 m 0 ft / 0 m